createdAt,value
2023-03-06T00:01:18.459Z,2.69
2023-03-06T00:07:20.431Z,2.68
2023-03-06T00:13:24.997Z,2.59
2023-03-06T00:19:28.103Z,2.47
2023-03-06T00:25:30.189Z,2.46
2023-03-06T00:31:32.397Z,2.35
2023-03-06T00:37:34.329Z,2.31
2023-03-06T00:43:36.360Z,2.28
2023-03-06T00:49:38.490Z,2.31
2023-03-06T00:55:40.377Z,2.27
2023-03-06T01:01:42.349Z,2.34
2023-03-06T01:07:44.320Z,2.13
2023-03-06T01:13:46.377Z,2.18
2023-03-06T01:19:48.258Z,2.22
2023-03-06T01:25:50.141Z,2.02
2023-03-06T01:31:52.270Z,2.00
2023-03-06T01:37:54.212Z,1.85
2023-03-06T01:43:56.262Z,1.68
2023-03-06T01:50:00.620Z,1.58
2023-03-06T01:56:02.738Z,1.56
2023-03-06T02:02:08.744Z,1.60
2023-03-06T02:08:19.297Z,1.69
2023-03-06T02:14:21.698Z,1.63
2023-03-06T02:20:28.919Z,1.59
2023-03-06T02:26:32.835Z,1.53
2023-03-06T02:32:34.908Z,1.52
2023-03-06T02:38:50.916Z,1.70
2023-03-06T02:44:53.832Z,1.77
2023-03-06T02:50:55.905Z,1.76
2023-03-06T02:56:57.793Z,1.86
2023-03-06T03:02:59.886Z,1.72
2023-03-06T03:09:01.790Z,1.87
2023-03-06T03:15:04.624Z,1.98
2023-03-06T03:21:12.945Z,2.02
2023-03-06T03:27:14.918Z,2.08
2023-03-06T03:33:16.832Z,2.14
2023-03-06T03:39:19.818Z,2.18
2023-03-06T03:45:22.185Z,2.18
2023-03-06T03:51:24.150Z,2.25
2023-03-06T03:57:26.208Z,2.20
2023-03-06T04:03:29.236Z,2.25
2023-03-06T04:09:31.396Z,2.03
2023-03-06T04:15:33.384Z,2.12
2023-03-06T04:21:35.296Z,2.09
2023-03-06T04:27:37.178Z,2.05
2023-03-06T04:33:39.341Z,2.06
2023-03-06T04:39:41.189Z,1.98
2023-03-06T04:45:43.153Z,1.90
2023-03-06T04:51:45.055Z,1.80
2023-03-06T04:57:47.807Z,1.89
2023-03-06T05:03:49.983Z,1.93
2023-03-06T05:09:52.027Z,2.13
2023-03-06T05:15:54.175Z,2.19
2023-03-06T05:21:56.067Z,2.22
2023-03-06T05:27:58.434Z,2.42
2023-03-06T05:34:00.690Z,2.52
2023-03-06T05:40:06.728Z,2.54
2023-03-06T05:46:10.525Z,2.59
2023-03-06T05:52:13.165Z,2.37
2023-03-06T05:58:15.063Z,2.52
2023-03-06T06:04:16.946Z,2.43
2023-03-06T06:10:18.924Z,2.34
2023-03-06T06:16:20.828Z,2.26
2023-03-06T06:22:22.705Z,2.35
2023-03-06T06:28:24.604Z,2.39
2023-03-06T06:34:27.470Z,2.34
2023-03-06T06:40:29.651Z,2.28
2023-03-06T06:47:19.312Z,2.34
2023-03-06T06:52:53.495Z,2.38
2023-03-06T06:59:15.358Z,2.29
2023-03-06T07:05:21.009Z,2.42
2023-03-06T07:11:24.246Z,2.56
2023-03-06T07:17:26.198Z,2.65
2023-03-06T07:23:28.421Z,2.77
2023-03-06T07:29:32.919Z,3.18
2023-03-06T07:35:35.292Z,3.30
2023-03-06T07:41:37.325Z,3.16
2023-03-06T07:47:40.147Z,3.19
2023-03-06T07:53:42.499Z,3.22
2023-03-06T07:59:44.373Z,3.32
2023-03-06T08:05:46.351Z,3.34
2023-03-06T08:11:48.279Z,3.42
2023-03-06T08:17:51.068Z,3.55
2023-03-06T08:23:53.308Z,3.64
2023-03-06T08:29:55.195Z,3.60
2023-03-06T08:35:57.111Z,3.91
2023-03-06T08:41:59.037Z,4.10
2023-03-06T08:48:00.939Z,3.97
2023-03-06T08:54:02.991Z,4.15
2023-03-06T09:00:08.840Z,4.12
2023-03-06T09:06:10.799Z,4.30
2023-03-06T09:12:12.680Z,4.38
2023-03-06T09:18:14.555Z,4.50
2023-03-06T09:24:16.532Z,5.09
2023-03-06T09:30:19.010Z,4.93
2023-03-06T09:36:22.746Z,4.71
2023-03-06T09:42:25.406Z,4.37
2023-03-06T09:48:52.048Z,3.90
2023-03-06T09:55:04.604Z,3.88
2023-03-06T10:01:36.578Z,3.97
2023-03-06T10:08:18.653Z,3.89
2023-03-06T10:14:37.946Z,4.18
2023-03-06T10:21:04.739Z,3.95
2023-03-06T10:27:42.921Z,4.05
2023-03-06T10:33:55.667Z,4.22
2023-03-06T10:40:28.864Z,4.36
2023-03-06T10:46:37.421Z,4.37
2023-03-06T10:52:39.510Z,4.54
2023-03-06T10:58:41.450Z,4.57
2023-03-06T11:04:51.282Z,4.55
2023-03-06T11:11:02.299Z,4.68
2023-03-06T11:17:04.497Z,4.73
2023-03-06T11:23:37.264Z,4.69
2023-03-06T11:29:45.391Z,4.41
2023-03-06T11:36:05.320Z,4.12
2023-03-06T11:42:26.120Z,4.02
2023-03-06T11:48:36.851Z,4.01
2023-03-06T11:54:38.855Z,3.94
2023-03-06T12:01:08.725Z,3.49
2023-03-06T12:07:30.616Z,3.65
2023-03-06T12:13:54.327Z,3.65
2023-03-06T12:20:54.380Z,3.58
2023-03-06T12:27:15.402Z,3.61
2023-03-06T12:33:36.720Z,3.64
2023-03-06T12:40:02.953Z,3.59
2023-03-06T12:46:27.026Z,3.47
2023-03-06T12:52:34.353Z,3.26
2023-03-06T12:59:02.479Z,3.56
2023-03-06T13:05:43.938Z,4.21
2023-03-06T13:12:25.866Z,4.43
2023-03-06T13:18:46.120Z,4.55
2023-03-06T13:24:49.452Z,4.81
2023-03-06T13:30:53.368Z,4.86
2023-03-06T13:37:23.113Z,4.57
2023-03-06T13:43:25.183Z,4.57
2023-03-06T13:49:29.117Z,4.56
2023-03-06T13:55:57.097Z,3.54
2023-03-06T14:02:45.667Z,2.53
2023-03-06T14:08:47.775Z,2.35
2023-03-06T14:15:00.172Z,2.66
2023-03-06T14:21:06.248Z,4.40
2023-03-06T14:27:21.399Z,7.97
2023-03-06T14:33:51.232Z,9.62
2023-03-06T14:39:55.189Z,10.22
2023-03-06T14:46:03.141Z,11.65
2023-03-06T14:52:05.304Z,9.97
2023-03-06T14:58:36.086Z,8.16
2023-03-06T15:04:45.904Z,6.88
2023-03-06T15:11:05.773Z,5.71
2023-03-06T15:17:19.845Z,5.39
2023-03-06T15:23:27.236Z,4.93
2023-03-06T15:29:29.185Z,4.60
2023-03-06T15:35:34.264Z,4.29
2023-03-06T15:41:39.083Z,4.38
2023-03-06T15:47:41.307Z,4.12
2023-03-06T15:53:43.194Z,3.92
2023-03-06T15:59:45.553Z,3.81
2023-03-06T16:05:47.605Z,3.91
2023-03-06T16:11:49.675Z,3.88
2023-03-06T16:17:51.602Z,3.97
2023-03-06T16:23:53.651Z,3.98
2023-03-06T16:29:55.535Z,4.09
2023-03-06T16:35:57.456Z,3.99
2023-03-06T16:41:59.329Z,3.84
2023-03-06T16:48:01.324Z,3.62
2023-03-06T16:54:03.281Z,3.29
2023-03-06T17:00:06.621Z,3.01
2023-03-06T17:06:21.287Z,2.63
2023-03-06T17:12:23.166Z,2.36
2023-03-06T17:18:27.636Z,2.09
2023-03-06T17:24:29.556Z,1.91
2023-03-06T17:30:31.454Z,1.65
2023-03-06T17:36:33.662Z,1.58
2023-03-06T17:42:35.892Z,1.66
2023-03-06T17:48:38.124Z,1.76
2023-03-06T17:54:40.431Z,1.68
2023-03-06T18:00:43.052Z,1.67
2023-03-06T18:06:44.977Z,1.68
2023-03-06T18:12:46.872Z,1.76
2023-03-06T18:18:55.990Z,1.77
2023-03-06T18:24:57.891Z,1.77
2023-03-06T18:30:59.850Z,1.76
2023-03-06T18:37:01.727Z,1.74
2023-03-06T18:43:03.643Z,1.57
2023-03-06T18:49:06.466Z,1.68
2023-03-06T18:55:09.547Z,1.34
2023-03-06T19:01:11.896Z,1.32
2023-03-06T19:07:13.949Z,1.46
2023-03-06T19:13:16.047Z,1.33
2023-03-06T19:19:17.953Z,1.36
2023-03-06T19:25:20.233Z,1.25
2023-03-06T19:31:26.236Z,1.20
2023-03-06T19:37:28.300Z,1.27
2023-03-06T19:43:31.054Z,1.23
2023-03-06T19:49:39.843Z,1.12
2023-03-06T19:55:43.037Z,1.15
2023-03-06T20:01:45.117Z,1.20
2023-03-06T20:07:47.201Z,0.98
2023-03-06T20:13:49.761Z,0.97
2023-03-06T20:19:51.729Z,1.06
2023-03-06T20:26:07.247Z,0.99
2023-03-06T20:32:09.213Z,1.06
2023-03-06T20:38:11.684Z,1.01
2023-03-06T20:44:18.029Z,0.86
2023-03-06T20:50:19.906Z,0.92
2023-03-06T20:56:29.186Z,1.06
2023-03-06T21:02:31.150Z,1.13
2023-03-06T21:08:33.032Z,1.13
2023-03-06T21:14:34.911Z,1.05
2023-03-06T21:20:41.178Z,1.11
2023-03-06T21:26:43.081Z,1.07
2023-03-06T21:32:45.024Z,1.24
2023-03-06T21:38:49.423Z,1.23
2023-03-06T21:44:51.323Z,1.21
2023-03-06T21:50:53.224Z,1.38
2023-03-06T21:56:55.216Z,1.38
2023-03-06T22:02:57.201Z,1.34
2023-03-06T22:09:00.848Z,1.47
2023-03-06T22:15:03.121Z,1.40
2023-03-06T22:21:10.739Z,1.46
2023-03-06T22:27:12.613Z,1.44
2023-03-06T22:33:14.521Z,1.46
2023-03-06T22:39:17.234Z,1.59
2023-03-06T22:45:19.150Z,1.63
2023-03-06T22:51:21.614Z,1.59
2023-03-06T22:57:23.720Z,1.58
2023-03-06T23:03:25.588Z,1.53
2023-03-06T23:09:27.515Z,1.62
2023-03-06T23:15:29.448Z,1.73
2023-03-06T23:21:31.573Z,2.12
2023-03-06T23:27:36.204Z,2.32
2023-03-06T23:33:38.802Z,2.49
2023-03-06T23:39:40.789Z,2.66
2023-03-06T23:45:53.669Z,2.67
2023-03-06T23:51:55.569Z,2.74
2023-03-06T23:57:57.438Z,2.77
